Time;durP1;ratioP1;P1;durP2;ratioP2;P2;SDS_P1;SDS_P2;PMS_P1;PMS_P2;Temp;Humidity;BMP_temperature;BMP_pressure;BME280_temperature;BME280_humidity;BME280_pressure;Samples;Min_cycle;Max_cycle;Signal;HPM_P1;HPM_P2
2023/09/13 00:00:17;;;;;;;40.60;36.70;;;;;;;17.45;100.00;98644.24;109534;1252;59007;-67
2023/09/13 00:03:04;;;;;;;40.10;36.10;;;;;;;17.45;100.00;98641.77;109512;1251;74995;-68
2023/09/13 00:05:30;;;;;;;40.70;36.50;;;;;;;17.46;100.00;98640.59;109595;1251;60250;-67
2023/09/13 00:07:57;;;;;;;38.80;35.10;;;;;;;17.46;100.00;98642.38;109539;1253;58938;-67
2023/09/13 00:10:24;;;;;;;37.50;33.70;;;;;;;17.44;100.00;98643.64;109519;1251;59201;-67
2023/09/13 00:12:51;;;;;;;37.50;33.80;;;;;;;17.43;100.00;98639.78;109535;1253;59015;-68
2023/09/13 00:15:18;;;;;;;40.20;36.00;;;;;;;17.42;100.00;98637.39;109492;1253;64802;-68
2023/09/13 00:17:44;;;;;;;39.90;35.90;;;;;;;17.41;100.00;98631.38;109534;1252;60080;-68
2023/09/13 00:20:11;;;;;;;39.70;36.00;;;;;;;17.40;100.00;98627.13;109494;1252;58969;-68
2023/09/13 00:22:37;;;;;;;40.70;36.60;;;;;;;17.39;100.00;98621.55;109530;1252;59009;-67
2023/09/13 00:25:04;;;;;;;39.60;35.50;;;;;;;17.36;100.00;98620.35;109538;1253;58953;-67
2023/09/13 00:27:30;;;;;;;39.20;35.40;;;;;;;17.34;100.00;98622.18;109525;1252;65994;-67
2023/09/13 00:29:57;;;;;;;37.90;34.30;;;;;;;17.32;100.00;98623.27;109521;1252;58950;-67
2023/09/13 00:32:24;;;;;;;41.30;36.90;;;;;;;17.30;100.00;98620.07;109260;1256;64075;-67
2023/09/13 00:34:50;;;;;;;40.00;36.20;;;;;;;17.28;100.00;98619.41;109505;1252;58986;-67
2023/09/13 00:37:17;;;;;;;40.90;36.70;;;;;;;17.25;100.00;98613.57;109524;1253;59193;-67
2023/09/13 00:39:44;;;;;;;39.60;35.60;;;;;;;17.24;100.00;98610.45;109488;1253;66006;-67
2023/09/13 00:42:10;;;;;;;39.90;35.90;;;;;;;17.22;100.00;98607.61;109538;1253;58950;-67
2023/09/13 00:44:37;;;;;;;40.40;36.30;;;;;;;17.22;100.00;98607.60;109549;1252;64505;-67
2023/09/13 00:47:03;;;;;;;39.10;35.30;;;;;;;17.22;100.00;98612.45;109533;1253;59029;-67
2023/09/13 00:49:30;;;;;;;40.40;36.40;;;;;;;17.21;100.00;98615.94;109504;1253;59002;-67
2023/09/13 00:51:57;;;;;;;42.10;38.00;;;;;;;17.20;100.00;98614.63;109494;1253;66037;-67
2023/09/13 00:54:25;;;;;;;39.60;35.80;;;;;;;17.20;100.00;98618.40;109558;1253;61339;-67
2023/09/13 00:56:52;;;;;;;40.90;37.10;;;;;;;17.19;100.00;98620.87;109521;1251;64036;-67
2023/09/13 00:59:19;;;;;;;41.50;37.40;;;;;;;17.16;100.00;98625.96;109487;1253;59022;-67
2023/09/13 01:01:46;;;;;;;43.20;38.90;;;;;;;17.14;100.00;98626.91;109523;1252;59205;-67
2023/09/13 01:04:12;;;;;;;41.40;37.60;;;;;;;17.14;100.00;98626.05;109525;1252;67434;-67
2023/09/13 01:06:39;;;;;;;41.30;37.20;;;;;;;17.12;100.00;98627.98;109546;1253;60232;-68
2023/09/13 01:09:05;;;;;;;39.30;35.40;;;;;;;17.10;100.00;98628.16;109535;1252;64002;-68
2023/09/13 01:11:32;;;;;;;39.00;35.30;;;;;;;17.07;100.00;98625.64;109174;1252;59038;-68
2023/09/13 01:13:59;;;;;;;40.30;36.20;;;;;;;17.04;100.00;98624.84;109557;1252;58845;-68
2023/09/13 01:16:45;;;;;;;38.90;35.10;;;;;;;17.01;100.00;98627.13;109553;1252;64538;-68
2023/09/13 01:19:36;;;;;;;39.00;35.10;;;;;;;16.96;100.00;98626.50;109537;1251;59053;-68
2023/09/13 01:22:03;;;;;;;37.40;33.80;;;;;;;16.92;100.00;98628.69;109517;1253;64075;-68
2023/09/13 01:24:54;;;;;;;40.80;36.60;;;;;;;16.89;100.00;98631.52;109537;1252;58918;-68
2023/09/13 01:28:10;;;;;;;40.10;36.10;;;;;;;16.85;100.00;98635.31;109538;1252;58953;-68
2023/09/13 01:30:37;;;;;;;40.50;36.30;;;;;;;16.81;100.00;98634.15;108931;1259;65990;-68
2023/09/13 01:33:04;;;;;;;40.60;36.50;;;;;;;16.77;100.00;98630.16;108925;1259;59115;-68
2023/09/13 01:35:30;;;;;;;41.10;37.00;;;;;;;16.77;100.00;98631.29;108864;1259;64062;-68
2023/09/13 01:37:58;;;;;;;41.10;37.20;;;;;;;16.75;100.00;98633.42;108878;1259;59207;-68
2023/09/13 01:40:29;;;;;;;42.50;38.30;;;;;;;16.74;100.00;98633.16;108935;1260;59171;-67
2023/09/13 01:42:59;;;;;;;41.10;37.00;;;;;;;16.73;100.00;98629.86;108949;1259;66078;-67
2023/09/13 01:45:26;;;;;;;;;;;;;;;16.72;100.00;98631.73;108946;1259;60511;-68
2023/09/13 01:47:54;;;;;;;39.30;35.30;;;;;;;16.70;100.00;98627.44;108900;1259;63055;-68
2023/09/13 01:50:21;;;;;;;40.30;36.40;;;;;;;16.68;100.00;98626.23;108897;1259;59186;-68
2023/09/13 01:52:47;;;;;;;39.00;35.10;;;;;;;16.65;100.00;98630.27;108915;1259;58956;-68
2023/09/13 01:55:14;;;;;;;39.10;35.50;;;;;;;16.61;100.00;98626.69;108925;1259;65790;-67
2023/09/13 01:57:40;;;;;;;39.10;35.30;;;;;;;16.57;100.00;98624.79;108884;1259;59085;-68
2023/09/13 02:00:31;;;;;;;37.80;34.10;;;;;;;16.53;100.00;98624.48;108923;1259;59379;-68
2023/09/13 02:02:57;;;;;;;37.80;34.10;;;;;;;16.50;100.00;98625.84;108909;1259;59544;-68
2023/09/13 02:05:24;;;;;;;36.60;33.20;;;;;;;16.47;100.00;98625.95;109019;1259;59042;-68
2023/09/13 02:07:50;;;;;;;36.40;32.90;;;;;;;16.43;100.00;98624.52;109552;1252;74680;-68
2023/09/13 02:10:17;;;;;;;38.00;34.20;;;;;;;16.40;100.00;98626.77;109532;1253;58936;-68
2023/09/13 02:12:43;;;;;;;37.50;34.00;;;;;;;16.37;100.00;98622.97;109522;1253;62812;-68
2023/09/13 02:15:10;;;;;;;37.90;34.40;;;;;;;16.34;100.00;98618.73;109506;1253;58986;-68
2023/09/13 02:17:36;;;;;;;40.20;36.20;;;;;;;16.34;100.00;98621.51;109504;1251;58863;-67
2023/09/13 02:20:04;;;;;;;39.80;36.00;;;;;;;16.33;100.00;98624.99;109561;1253;59537;-68
2023/09/13 02:22:31;;;;;;;39.10;35.40;;;;;;;16.32;100.00;98627.40;109281;1252;59646;-68
2023/09/13 02:24:57;;;;;;;41.40;37.40;;;;;;;16.31;100.00;98623.92;109540;1253;59152;-68
2023/09/13 02:27:24;;;;;;;41.60;37.40;;;;;;;16.30;100.00;98623.67;109507;1253;58940;-68
2023/09/13 02:29:50;;;;;;;38.30;34.60;;;;;;;16.29;100.00;98627.70;109516;1252;58925;-68
2023/09/13 02:32:16;;;;;;;36.40;33.10;;;;;;;16.28;100.00;98628.89;109539;1252;59190;-68
2023/09/13 02:34:44;;;;;;;34.90;31.60;;;;;;;16.25;100.00;98631.85;109529;1252;59036;-68
2023/09/13 02:37:11;;;;;;;32.50;29.40;;;;;;;16.21;100.00;98629.89;109518;1252;64490;-68
2023/09/13 02:39:41;;;;;;;32.70;29.50;;;;;;;16.17;100.00;98622.01;109528;1251;58988;-68
2023/09/13 02:42:08;;;;;;;30.50;27.40;;;;;;;16.13;100.00;98622.02;109524;1252;58945;-68
2023/09/13 02:44:35;;;;;;;31.90;29.00;;;;;;;16.11;100.00;98626.05;109555;1253;66063;-68
2023/09/13 02:47:02;;;;;;;29.70;27.10;;;;;;;16.07;100.00;98627.25;109595;1252;59875;-68
2023/09/13 02:49:29;;;;;;;30.20;27.30;;;;;;;16.02;100.00;98627.05;109302;1252;62815;-68
2023/09/13 02:51:55;;;;;;;31.40;28.40;;;;;;;15.95;100.00;98624.14;109543;1253;59305;-67
2023/09/13 02:54:22;;;;;;;31.50;28.40;;;;;;;15.88;100.00;98621.52;109528;1252;58881;-68
2023/09/13 02:56:49;;;;;;;30.60;27.60;;;;;;;15.82;100.00;98620.02;109554;1253;67219;-67
2023/09/13 02:59:16;;;;;;;27.40;24.80;;;;;;;15.75;100.00;98620.26;109558;1252;60687;-68
2023/09/13 03:01:42;;;;;;;30.50;27.50;;;;;;;15.72;100.00;98622.16;109539;1252;64001;-68
2023/09/13 03:04:09;;;;;;;33.10;30.00;;;;;;;15.70;100.00;98618.45;109546;1252;59019;-68
2023/09/13 03:06:38;;;;;;;32.50;29.30;;;;;;;15.70;100.00;98616.80;109543;1252;59384;-67
2023/09/13 03:09:05;;;;;;;30.80;27.90;;;;;;;15.69;100.00;98616.34;109583;1253;65885;-68
2023/09/13 03:11:32;;;;;;;32.60;29.50;;;;;;;15.68;100.00;98620.39;109521;1252;59194;-68
2023/09/13 03:13:58;;;;;;;33.20;30.20;;;;;;;15.67;100.00;98620.48;109532;1252;64060;-68
2023/09/13 03:16:25;;;;;;;34.40;31.10;;;;;;;15.65;100.00;98620.66;109567;1253;58940;-68
2023/09/13 03:18:52;;;;;;;35.20;31.90;;;;;;;15.64;100.00;98619.14;109533;1252;58948;-68
2023/09/13 03:21:20;;;;;;;35.80;32.50;;;;;;;15.63;100.00;98619.94;109524;1253;64865;-68
2023/09/13 03:23:49;;;;;;;35.20;31.90;;;;;;;15.62;100.00;98621.09;109517;1252;58994;-68
2023/09/13 03:26:24;;;;;;;34.70;31.20;;;;;;;15.60;100.00;98622.34;109495;1252;62827;-68
2023/09/13 03:28:52;;;;;;;34.00;30.70;;;;;;;15.59;100.00;98620.69;109547;1252;59423;-68
2023/09/13 03:31:21;;;;;;;32.90;29.80;;;;;;;15.58;100.00;98619.27;109283;1253;58989;-68
2023/09/13 03:33:51;;;;;;;35.10;31.70;;;;;;;15.59;100.00;98618.91;109524;1253;64505;-68
2023/09/13 03:36:18;;;;;;;32.70;29.50;;;;;;;15.57;100.00;98617.45;109544;1252;58995;-68
2023/09/13 03:38:48;;;;;;;33.40;30.30;;;;;;;15.54;100.00;98612.52;109363;1252;64041;-68
2023/09/13 03:41:18;;;;;;;31.80;28.50;;;;;;;15.52;100.00;98614.15;109543;1252;59114;-68
2023/09/13 03:43:45;;;;;;;31.20;28.10;;;;;;;15.49;100.00;98614.27;109574;1253;59019;-68
2023/09/13 03:46:12;;;;;;;30.90;27.90;;;;;;;15.47;100.00;98612.52;109553;1253;65839;-68
2023/09/13 03:48:39;;;;;;;31.90;28.90;;;;;;;15.44;100.00;98612.44;109559;1252;60183;-68
2023/09/13 03:51:07;;;;;;;32.30;29.10;;;;;;;15.42;100.00;98611.00;109507;1252;63876;-68
2023/09/13 03:53:34;;;;;;;29.70;27.10;;;;;;;15.40;100.00;98613.48;109542;1252;58944;-69
2023/09/13 03:56:03;;;;;;;30.80;27.90;;;;;;;15.37;100.00;98614.09;109362;1251;59324;-69
2023/09/13 03:58:29;;;;;;;31.60;28.70;;;;;;;15.35;100.00;98615.70;109519;1252;64511;-69
2023/09/13 04:00:56;;;;;;;33.00;29.90;;;;;;;15.33;100.00;98612.14;109604;1251;58933;-68
2023/09/13 04:03:24;;;;;;;32.50;29.60;;;;;;;15.32;100.00;98611.21;109278;1252;63281;-68
2023/09/13 04:05:50;;;;;;;34.00;30.70;;;;;;;15.31;100.00;98612.17;109509;1252;58969;-68
2023/09/13 04:08:17;;;;;;;33.90;30.70;;;;;;;15.31;100.00;98612.20;109383;1253;59036;-68
2023/09/13 04:10:43;;;;;;;32.20;29.20;;;;;;;15.30;100.00;98609.60;109543;1251;64521;-69
2023/09/13 04:13:10;;;;;;;33.10;30.10;;;;;;;15.29;100.00;98605.15;109264;1254;60354;-69
2023/09/13 04:15:37;;;;;;;32.60;29.40;;;;;;;15.30;100.00;98605.48;109524;1252;64050;-69
2023/09/13 04:18:04;;;;;;;33.00;29.90;;;;;;;15.30;100.00;98606.89;109535;1253;59046;-69
2023/09/13 04:20:31;;;;;;;32.00;29.00;;;;;;;15.32;100.00;98606.20;109573;1252;59047;-69
2023/09/13 04:22:57;;;;;;;35.20;31.70;;;;;;;15.33;100.00;98608.81;109545;1251;64623;-69
2023/09/13 04:25:24;;;;;;;33.20;29.80;;;;;;;15.33;100.00;98612.84;109374;1254;60334;-69
2023/09/13 04:27:50;;;;;;;32.30;29.30;;;;;;;15.34;100.00;98615.70;109549;1252;62924;-69
2023/09/13 04:30:17;;;;;;;32.10;29.00;;;;;;;15.34;100.00;98610.98;109285;1252;59019;-67
2023/09/13 04:32:44;;;;;;;33.80;30.60;;;;;;;15.36;100.00;98607.02;109550;1252;58925;-68
2023/09/13 04:35:12;;;;;;;32.80;29.40;;;;;;;15.38;100.00;98606.67;109555;1253;64824;-68
2023/09/13 04:37:39;;;;;;;33.00;29.60;;;;;;;15.39;100.00;98609.84;109572;1252;59021;-68
2023/09/13 04:40:06;;;;;;;31.90;28.90;;;;;;;15.40;100.00;98610.35;109572;1251;64269;-68
2023/09/13 04:42:37;;;;;;;31.50;28.60;;;;;;;15.40;100.00;98609.08;109526;1252;58972;-68
2023/09/13 04:45:04;;;;;;;30.60;27.70;;;;;;;15.42;100.00;98611.16;109539;1253;59001;-68
2023/09/13 04:47:31;;;;;;;31.70;28.70;;;;;;;15.48;100.00;98609.49;109557;1252;66381;-67
2023/09/13 04:49:58;;;;;;;28.20;25.70;;;;;;;15.54;100.00;98605.52;109228;1252;60001;-68
2023/09/13 04:52:24;;;;;;;28.90;26.10;;;;;;;15.67;100.00;98606.66;109255;1253;63740;-68
2023/09/13 04:54:51;;;;;;;28.30;25.80;;;;;;;15.93;100.00;98604.99;109537;1252;58948;-68
2023/09/13 04:57:17;;;;;;;26.60;23.90;;;;;;;16.16;100.00;98606.30;109572;1252;58953;-68
2023/09/13 04:59:45;;;;;;;23.10;21.10;;;;;;;16.24;100.00;98610.43;109583;1252;66041;-68
2023/09/13 05:02:12;;;;;;;25.00;22.90;;;;;;;16.37;100.00;98611.16;109569;1253;60194;-68
2023/09/13 05:04:40;;;;;;;27.70;24.90;;;;;;;16.64;100.00;98612.46;109550;1252;62534;-68
2023/09/13 05:07:07;;;;;;;30.50;27.70;;;;;;;16.91;100.00;98611.29;109544;1253;59062;-68
2023/09/13 05:09:35;;;;;;;28.10;25.60;;;;;;;17.05;100.00;98612.36;109187;1254;58981;-68
2023/09/13 05:12:02;;;;;;;28.10;25.30;;;;;;;17.28;100.00;98614.19;109550;1252;73787;-68
2023/09/13 05:14:29;;;;;;;29.10;26.20;;;;;;;17.55;100.00;98612.36;109581;1252;59873;-68
2023/09/13 05:16:55;;;;;;;26.20;23.70;;;;;;;17.82;100.00;98614.27;109551;1252;64027;-68
2023/09/13 05:19:22;;;;;;;26.00;23.40;;;;;;;18.06;100.00;98613.41;109264;1253;59021;-68
2023/09/13 05:21:48;;;;;;;27.70;25.00;;;;;;;18.21;100.00;98609.13;109601;1253;59393;-69
2023/09/13 05:24:15;;;;;;;27.20;24.60;;;;;;;18.56;100.00;98611.59;109548;1251;66031;-68
2023/09/13 05:26:41;;;;;;;28.60;25.80;;;;;;;18.98;100.00;98606.61;109535;1252;60154;-69
2023/09/13 05:29:08;;;;;;;25.80;23.50;;;;;;;19.31;100.00;98607.14;109503;1252;59057;-69
2023/09/13 05:31:35;;;;;;;26.10;23.60;;;;;;;19.59;100.00;98602.66;109553;1252;59496;-69
2023/09/13 05:34:01;;;;;;;25.50;23.10;;;;;;;19.84;100.00;98602.01;109563;1252;58929;-69
2023/09/13 05:36:28;;;;;;;23.00;20.90;;;;;;;20.06;100.00;98605.20;109191;1252;65866;-69
2023/09/13 05:38:55;;;;;;;26.30;23.70;;;;;;;20.29;100.00;98607.30;109571;1252;59273;-69
2023/09/13 05:41:22;;;;;;;25.00;22.90;;;;;;;20.58;100.00;98607.98;109566;1253;64098;-69
2023/09/13 05:43:49;;;;;;;24.30;22.10;;;;;;;20.86;100.00;98603.95;109488;1252;59048;-68
2023/09/13 05:46:16;;;;;;;25.50;22.90;;;;;;;21.05;100.00;98607.01;109527;1251;59004;-69
2023/09/13 05:48:43;;;;;;;23.70;21.60;;;;;;;21.25;100.00;98605.24;109001;1251;65783;-69
2023/09/13 05:51:09;;;;;;;23.10;21.00;;;;;;;21.46;100.00;98603.53;109553;1253;59047;-69
2023/09/13 05:53:36;;;;;;;23.90;21.60;;;;;;;21.63;100.00;98601.15;109607;1252;64042;-69
2023/09/13 05:56:05;;;;;;;22.50;20.50;;;;;;;21.79;100.00;98600.84;109481;1252;58928;-69
2023/09/13 05:58:32;;;;;;;21.70;20.00;;;;;;;22.06;100.00;98604.43;109530;1252;59017;-69
2023/09/13 06:00:59;;;;;;;21.20;19.30;;;;;;;22.27;100.00;98606.67;109511;1251;65849;-69
2023/09/13 06:03:25;;;;;;;22.70;20.30;;;;;;;22.42;100.00;98607.52;109559;1253;59850;-69
2023/09/13 06:05:52;;;;;;;22.10;19.90;;;;;;;22.56;100.00;98609.96;109583;1252;64111;-69
2023/09/13 06:08:18;;;;;;;21.60;19.70;;;;;;;22.71;100.00;98612.31;109559;1251;58993;-69
2023/09/13 06:10:46;;;;;;;20.70;18.70;;;;;;;22.88;100.00;98618.17;109293;1252;59167;-69
2023/09/13 06:13:12;;;;;;;20.30;18.50;;;;;;;23.05;100.00;98619.99;109555;1251;66179;-69
2023/09/13 06:15:39;;;;;;;20.50;18.60;;;;;;;23.17;100.00;98622.54;109584;1251;60505;-69
2023/09/13 06:18:05;;;;;;;18.60;16.80;;;;;;;23.23;100.00;98625.91;109566;1253;62590;-69
2023/09/13 06:20:32;;;;;;;18.60;16.90;;;;;;;23.32;100.00;98631.87;109547;1252;58939;-69
2023/09/13 06:22:59;;;;;;;19.00;17.20;;;;;;;23.31;100.00;98631.23;109555;1252;58905;-69
2023/09/13 06:25:25;;;;;;;17.70;16.00;;;;;;;23.24;100.00;98632.40;109549;1254;64514;-69
2023/09/13 06:27:52;;;;;;;18.20;16.70;;;;;;;23.16;100.00;98630.23;109543;1253;59168;-69
2023/09/13 06:30:21;;;;;;;18.70;16.90;;;;;;;23.08;100.00;98630.77;109528;1252;64909;-69
2023/09/13 06:32:48;;;;;;;19.50;17.50;;;;;;;22.97;100.00;98632.98;109284;1253;59003;-69
2023/09/13 06:35:15;;;;;;;22.30;18.20;;;;;;;22.87;100.00;98632.92;109525;1252;59054;-69
2023/09/13 06:37:42;;;;;;;22.10;17.50;;;;;;;22.83;100.00;98633.52;109538;1251;65998;-69
2023/09/13 06:40:09;;;;;;;18.80;16.70;;;;;;;22.76;100.00;98636.04;109539;1252;60113;-69
2023/09/13 06:42:36;;;;;;;23.60;17.70;;;;;;;22.71;100.00;98645.55;109538;1252;62879;-69
2023/09/13 06:45:03;;;;;;;20.70;16.90;;;;;;;22.66;100.00;98642.94;109524;1252;58972;-69
2023/09/13 06:47:30;;;;;;;21.90;16.20;;;;;;;22.63;100.00;98644.84;109553;1252;58989;-69
2023/09/13 06:49:56;;;;;;;21.10;15.40;;;;;;;22.57;100.00;98650.58;109567;1251;64849;-69
2023/09/13 06:52:23;;;;;;;19.20;15.70;;;;;;;22.50;100.00;98652.45;109161;1254;160959;-69
2023/09/13 06:54:50;;;;;;;16.30;14.40;;;;;;;22.51;100.00;98653.98;109545;1252;62864;-69
2023/09/13 06:57:16;;;;;;;18.10;16.40;;;;;;;22.58;100.00;98654.40;109514;1254;59051;-68
2023/09/13 06:59:43;;;;;;;18.90;16.90;;;;;;;22.66;100.00;98653.13;109550;1252;58860;-68
2023/09/13 07:02:09;;;;;;;18.00;15.00;;;;;;;22.72;100.00;98653.84;109557;1252;67126;-68
2023/09/13 07:04:38;;;;;;;17.30;15.50;;;;;;;22.78;100.00;98654.91;109537;1254;59893;-69
2023/09/13 07:07:05;;;;;;;16.20;14.50;;;;;;;22.87;100.00;98655.95;109307;1252;64059;-68
2023/09/13 07:09:31;;;;;;;18.50;16.10;;;;;;;22.93;100.00;98661.00;109550;1253;58951;-68
2023/09/13 07:11:58;;;;;;;19.40;16.00;;;;;;;22.93;100.00;98660.43;109543;1252;59017;-68
2023/09/13 07:14:24;;;;;;;17.70;15.80;;;;;;;22.97;100.00;98661.05;109526;1253;59437;-68
2023/09/13 07:16:51;;;;;;;18.70;16.40;;;;;;;23.05;100.00;98661.02;109590;1252;59132;-68
2023/09/13 07:19:17;;;;;;;19.90;16.00;;;;;;;23.10;100.00;98662.54;109565;1253;59084;-68
2023/09/13 07:21:44;;;;;;;18.30;16.40;;;;;;;23.16;100.00;98662.14;109538;1252;58974;-68
2023/09/13 07:24:12;;;;;;;22.10;16.20;;;;;;;23.21;100.00;98663.34;109516;1251;58873;-69
2023/09/13 07:26:38;;;;;;;18.10;15.60;;;;;;;23.28;100.00;98665.73;109555;1251;66023;-68
2023/09/13 07:29:05;;;;;;;17.10;15.70;;;;;;;23.38;100.00;98667.70;109276;1252;60265;-68
2023/09/13 07:31:31;;;;;;;22.40;15.90;;;;;;;23.50;100.00;98669.46;109522;1252;64043;-68
2023/09/13 07:34:02;;;;;;;18.00;15.50;;;;;;;23.58;100.00;98671.80;109545;1253;59003;-68
2023/09/13 07:36:29;;;;;;;16.40;14.70;;;;;;;23.66;100.00;98672.50;109537;1252;59077;-68
2023/09/13 07:38:56;;;;;;;19.70;14.90;;;;;;;23.73;100.00;98671.74;109578;1252;67564;-68
2023/09/13 07:41:23;;;;;;;19.60;14.90;;;;;;;23.81;100.00;98669.19;109592;1252;60166;-69
2023/09/13 07:43:49;;;;;;;16.50;14.50;;;;;;;23.92;100.00;98663.43;109489;1251;62911;-69
2023/09/13 07:46:16;;;;;;;16.50;14.80;;;;;;;24.02;100.00;98667.96;109546;1253;59069;-68
2023/09/13 07:48:42;;;;;;;15.30;13.70;;;;;;;24.08;100.00;98665.02;109531;1253;58874;-68
2023/09/13 07:51:09;;;;;;;15.60;14.10;;;;;;;24.18;100.00;98661.00;109571;1252;59589;-68
2023/09/13 07:53:35;;;;;;;16.80;15.00;;;;;;;24.29;100.00;98656.92;109546;1254;60145;-68
2023/09/13 07:56:02;;;;;;;16.30;14.70;;;;;;;24.39;100.00;98657.36;109543;1252;62905;-68
2023/09/13 07:58:29;;;;;;;19.60;15.20;;;;;;;24.50;100.00;98659.23;109583;1253;58979;-68
2023/09/13 08:00:55;;;;;;;17.60;14.80;;;;;;;24.57;100.00;98658.97;109522;1253;58952;-68
2023/09/13 08:03:22;;;;;;;16.70;14.20;;;;;;;24.65;100.00;98656.45;109539;1252;66045;-68
2023/09/13 08:05:49;;;;;;;17.20;14.00;;;;;;;24.73;100.00;98654.67;109556;1252;59476;-68
2023/09/13 08:08:22;;;;;;;17.60;13.80;;;;;;;24.79;100.00;98654.19;109557;1252;63782;-69
2023/09/13 08:10:50;;;;;;;15.10;12.50;;;;;;;24.84;100.00;98652.98;109554;1252;59017;-69
2023/09/13 08:13:17;;;;;;;19.20;13.50;;;;;;;24.87;100.00;98654.81;109529;1254;59169;-69
2023/09/13 08:15:45;;;;;;;19.30;13.10;;;;;;;24.95;100.00;98651.11;109407;1251;66016;-69
2023/09/13 08:18:11;;;;;;;14.90;12.90;;;;;;;25.05;100.00;98649.89;109515;1253;58989;-69
2023/09/13 08:20:38;;;;;;;13.80;12.00;;;;;;;25.14;100.00;98648.48;109523;1252;59235;-69
2023/09/13 08:23:04;;;;;;;16.00;13.10;;;;;;;25.23;100.00;98645.61;109501;1252;59119;-69
2023/09/13 08:25:31;;;;;;;19.10;13.80;;;;;;;25.33;100.00;98643.42;109546;1253;58998;-69
2023/09/13 08:27:57;;;;;;;16.30;13.00;;;;;;;25.44;100.00;98645.08;109580;1253;66053;-69
2023/09/13 08:30:24;;;;;;;15.90;12.50;;;;;;;25.53;100.00;98645.77;109576;1251;58933;-69
2023/09/13 08:32:50;;;;;;;16.40;12.90;;;;;;;25.64;100.00;98649.21;109474;1252;62840;-69
2023/09/13 08:35:17;;;;;;;14.10;12.30;;;;;;;25.75;100.00;98643.77;109545;1253;58928;-69
2023/09/13 08:37:44;;;;;;;15.30;11.40;;;;;;;25.85;100.00;98641.11;109290;1252;59450;-69
2023/09/13 08:40:11;;;;;;;15.10;11.10;;;;;;;25.96;100.00;98641.20;109531;1252;66080;-69
2023/09/13 08:42:40;;;;;;;13.80;12.30;;;;;;;26.09;100.00;98641.63;109547;1255;68981;-69
2023/09/13 08:45:07;;;;;;;13.60;12.30;;;;;;;26.19;100.00;98639.59;109521;1253;63786;-69
2023/09/13 08:47:38;;;;;;;13.10;11.30;;;;;;;26.26;100.00;98638.19;109505;1254;59592;-69
2023/09/13 08:50:07;;;;;;;13.70;11.90;;;;;;;26.32;100.00;98638.74;109537;1252;59055;-69
2023/09/13 08:52:37;;;;;;;14.10;11.70;;;;;;;26.41;100.00;98639.34;109204;1253;66090;-69
2023/09/13 08:55:06;;;;;;;13.00;11.60;;;;;;;26.54;100.00;98637.41;109567;1252;59485;-69
2023/09/13 08:57:34;;;;;;;13.70;12.30;;;;;;;26.64;100.00;98634.35;109567;1252;64407;-69
2023/09/13 09:00:01;;;;;;;12.80;11.30;;;;;;;26.72;100.00;98632.52;109488;1252;59275;-69
2023/09/13 09:02:31;;;;;;;12.50;11.00;;;;;;;26.82;100.00;98632.77;109501;1254;59010;-69
2023/09/13 09:04:59;;;;;;;16.20;11.10;;;;;;;26.92;100.00;98631.81;109215;1252;66038;-69
2023/09/13 09:07:26;;;;;;;12.30;11.00;;;;;;;27.02;100.00;98634.54;109512;1251;60177;-69
2023/09/13 09:09:53;;;;;;;16.00;11.30;;;;;;;27.12;100.00;98632.98;109532;1252;64065;-69
2023/09/13 09:12:23;;;;;;;12.60;10.90;;;;;;;27.21;100.00;98635.90;109583;1253;59017;-69
2023/09/13 09:14:52;;;;;;;13.00;11.60;;;;;;;27.27;100.00;98636.42;109555;1251;59119;-69
2023/09/13 09:17:22;;;;;;;13.20;11.80;;;;;;;27.33;100.00;98633.55;109599;1252;65748;-70
2023/09/13 09:19:49;;;;;;;13.10;10.90;;;;;;;27.39;100.00;98633.91;109542;1251;59955;-69
2023/09/13 09:22:16;;;;;;;11.70;10.60;;;;;;;27.48;100.00;98631.29;109530;1252;63716;-69
2023/09/13 09:24:43;;;;;;;11.00;10.00;;;;;;;27.54;100.00;98634.19;109553;1255;58986;-69
2023/09/13 09:27:12;;;;;;;14.20;10.30;;;;;;;27.60;100.00;98631.97;109581;1253;59009;-69
2023/09/13 09:29:39;;;;;;;15.90;10.60;;;;;;;27.70;100.00;98631.26;109514;1253;66041;-69
2023/09/13 09:32:08;;;;;;;11.80;10.60;;;;;;;27.83;100.00;98630.24;109200;1252;60123;-69
2023/09/13 09:34:40;;;;;;;11.40;9.60;;;;;;;27.89;100.00;98629.91;109538;1253;63781;-69
2023/09/13 09:37:08;;;;;;;12.10;10.30;;;;;;;27.95;100.00;98629.56;109546;1254;59068;-69
2023/09/13 09:39:40;;;;;;;10.60;9.60;;;;;;;28.01;100.00;98632.80;109233;1253;58998;-69
2023/09/13 09:42:13;;;;;;;12.00;9.00;;;;;;;28.00;100.00;98633.82;109590;1254;65052;-69
2023/09/13 09:44:42;;;;;;;9.50;8.50;;;;;;;28.05;100.00;98626.58;109512;1253;59002;-70
2023/09/13 09:47:12;;;;;;;;;;;;;;;28.12;100.00;98626.09;109541;1254;72676;-69
2023/09/13 09:49:40;;;;;;;11.40;9.40;;;;;;;28.16;100.00;98623.42;109561;1254;59180;-69
2023/09/13 09:52:09;;;;;;;10.40;9.40;;;;;;;28.21;100.00;98622.54;109284;1251;58971;-69
2023/09/13 09:54:39;;;;;;;11.00;9.20;;;;;;;28.26;100.00;98621.95;109577;1254;66094;-69
2023/09/13 09:57:06;;;;;;;11.60;10.00;;;;;;;28.27;100.00;98620.77;109548;1253;59122;-69
2023/09/13 09:59:37;;;;;;;10.10;9.00;;;;;;;28.22;100.00;98616.83;109557;1254;63744;-69
2023/09/13 10:02:04;;;;;;;12.80;9.30;;;;;;;28.18;100.00;98615.61;109526;1253;59359;-69
2023/09/13 10:04:43;;;;;;;11.40;9.90;;;;;;;28.26;100.00;98616.89;109595;1252;59004;-69
2023/09/13 10:07:10;;;;;;;13.40;9.90;;;;;;;28.38;100.00;98619.16;109224;1252;66151;-69
2023/09/13 10:09:38;;;;;;;11.00;9.40;;;;;;;28.43;100.00;98620.05;109582;1254;60252;-69
2023/09/13 10:12:07;;;;;;;10.20;9.20;;;;;;;28.43;100.00;98619.77;109523;1253;64050;-70
2023/09/13 10:14:33;;;;;;;17.30;8.80;;;;;;;28.40;100.00;98616.91;109478;1253;58946;-69
2023/09/13 10:17:03;;;;;;;10.20;9.20;;;;;;;28.45;100.00;98613.93;109553;1253;58958;-70
2023/09/13 10:19:31;;;;;;;13.10;9.60;;;;;;;28.58;100.00;98613.67;109564;1252;64530;-69
2023/09/13 10:21:58;;;;;;;13.10;10.10;;;;;;;28.67;100.00;98612.25;109540;1253;60132;-69
2023/09/13 10:24:30;;;;;;;10.60;9.20;;;;;;;28.75;100.00;98604.14;109538;1252;64440;-69
2023/09/13 10:26:58;;;;;;;11.50;9.10;;;;;;;28.84;100.00;98605.27;109440;1252;59025;-69
2023/09/13 10:29:45;;;;;;;11.40;8.90;;;;;;;28.82;100.00;98605.17;109557;1251;59081;-69
2023/09/13 10:32:15;;;;;;;11.20;9.80;;;;;;;28.73;100.00;98603.83;109587;1251;64843;-69
2023/09/13 10:34:53;;;;;;;10.90;9.80;;;;;;;28.71;100.00;98608.79;109579;1254;59976;-69
2023/09/13 10:37:41;;;;;;;11.00;9.70;;;;;;;28.77;100.00;98603.81;109534;1252;62717;-69
2023/09/13 10:40:31;;;;;;;9.70;8.50;;;;;;;28.78;100.00;98600.65;109539;1253;59037;-69
2023/09/13 10:42:59;;;;;;;10.80;9.60;;;;;;;28.74;100.00;98599.83;109576;1254;59034;-69
2023/09/13 10:45:25;;;;;;;10.10;8.90;;;;;;;28.77;100.00;98601.50;109251;1252;64641;-69
2023/09/13 10:47:53;;;;;;;11.40;9.60;;;;;;;28.84;100.00;98597.70;109549;1253;60494;-68
2023/09/13 10:50:19;;;;;;;10.80;8.70;;;;;;;28.89;100.00;98597.08;109532;1251;64040;-69
2023/09/13 10:52:49;;;;;;;8.50;7.60;;;;;;;28.95;100.00;98597.13;109569;1251;58967;-69
2023/09/13 10:55:16;;;;;;;10.20;8.90;;;;;;;29.01;100.00;98594.83;109611;1250;59164;-69
2023/09/13 10:57:43;;;;;;;10.00;8.80;;;;;;;29.02;100.00;98592.98;109628;1251;66136;-69
2023/09/13 11:00:11;;;;;;;11.20;9.40;;;;;;;29.07;100.00;98593.39;109555;1251;59142;-69
2023/09/13 11:02:40;;;;;;;14.20;9.10;;;;;;;29.12;100.00;98592.04;109231;1251;63776;-69
2023/09/13 11:05:08;;;;;;;9.50;8.50;;;;;;;29.22;100.00;98589.73;109546;1251;58997;-69